createdAt,value
2022-12-14T00:01:40.716Z,19.37
2022-12-14T00:04:07.431Z,24.67
2022-12-14T00:06:34.282Z,19.47
2022-12-14T00:09:03.847Z,23.40
2022-12-14T00:11:32.843Z,26.33
2022-12-14T00:14:01.957Z,36.17
2022-12-14T00:16:31.287Z,29.53
2022-12-14T00:18:59.806Z,27.10
2022-12-14T00:21:27.647Z,23.23
2022-12-14T00:23:55.741Z,31.77
2022-12-14T00:26:25.810Z,25.20
2022-12-14T00:28:54.712Z,26.60
2022-12-14T00:31:22.345Z,28.80
2022-12-14T00:33:50.405Z,27.17
2022-12-14T00:36:17.414Z,20.40
2022-12-14T00:38:44.877Z,25.80
2022-12-14T00:41:12.808Z,26.93
2022-12-14T00:43:40.253Z,26.30
2022-12-14T00:46:07.474Z,32.80
2022-12-14T00:48:35.431Z,30.20
2022-12-14T00:51:02.833Z,28.27
2022-12-14T00:53:29.650Z,24.03
2022-12-14T00:55:57.097Z,25.80
2022-12-14T00:58:25.458Z,26.63
2022-12-14T01:01:00.577Z,27.90
2022-12-14T01:03:28.684Z,24.23
2022-12-14T01:05:56.308Z,23.07
2022-12-14T01:08:23.576Z,25.93
2022-12-14T01:10:51.697Z,26.00
2022-12-14T01:13:19.205Z,24.53
2022-12-14T01:15:46.016Z,24.67
2022-12-14T01:18:13.223Z,26.07
2022-12-14T01:20:40.512Z,25.57
2022-12-14T01:23:07.376Z,25.67
2022-12-14T01:25:34.629Z,30.20
2022-12-14T01:28:01.373Z,27.00
2022-12-14T01:30:28.370Z,24.40
2022-12-14T01:32:55.424Z,26.37
2022-12-14T01:35:22.177Z,23.40
2022-12-14T01:37:49.079Z,26.57
2022-12-14T01:40:16.474Z,24.17
2022-12-14T01:42:43.463Z,23.67
2022-12-14T01:45:21.800Z,14.13
2022-12-14T01:47:55.362Z,22.67
2022-12-14T01:50:48.675Z,25.00
2022-12-14T01:53:21.783Z,26.17
2022-12-14T01:55:54.191Z,26.80
2022-12-14T01:58:26.817Z,28.83
2022-12-14T02:00:56.741Z,26.93
2022-12-14T02:03:41.026Z,25.43
2022-12-14T02:06:21.060Z,27.63
2022-12-14T02:08:50.201Z,25.53
2022-12-14T02:11:23.362Z,26.77
2022-12-14T02:13:50.199Z,30.63
2022-12-14T02:16:17.117Z,28.83
2022-12-14T02:18:44.001Z,32.07
2022-12-14T02:21:36.770Z,28.97
2022-12-14T02:24:40.886Z,27.07
2022-12-14T02:27:13.121Z,25.43
2022-12-14T02:29:51.688Z,26.90
2022-12-14T02:32:18.358Z,24.93
2022-12-14T02:35:08.399Z,25.53
2022-12-14T02:38:00.784Z,26.33
2022-12-14T02:40:36.722Z,26.27
2022-12-14T02:43:21.844Z,25.37
2022-12-14T02:46:25.839Z,28.17
2022-12-14T02:49:07.844Z,28.57
2022-12-14T02:51:57.885Z,27.10
2022-12-14T02:55:06.778Z,27.77
2022-12-14T02:57:48.163Z,21.30
2022-12-14T03:00:15.913Z,29.77
2022-12-14T03:02:45.572Z,22.30
2022-12-14T03:05:12.990Z,29.27
2022-12-14T03:07:59.153Z,30.83
2022-12-14T03:10:38.138Z,31.03
2022-12-14T03:13:25.246Z,21.43
2022-12-14T03:16:08.856Z,26.80
2022-12-14T03:18:42.381Z,26.80
2022-12-14T03:21:13.161Z,25.53
2022-12-14T03:23:44.161Z,31.10
2022-12-14T03:26:20.153Z,26.17
2022-12-14T03:28:51.230Z,26.30
2022-12-14T03:31:28.259Z,26.10
2022-12-14T03:33:58.086Z,28.97
2022-12-14T03:36:40.926Z,27.60
2022-12-14T03:39:13.495Z,28.20
2022-12-14T03:41:56.673Z,22.23
2022-12-14T03:44:40.388Z,23.57
2022-12-14T03:47:43.670Z,33.33
2022-12-14T03:50:16.113Z,24.70
2022-12-14T03:52:48.402Z,26.20
2022-12-14T03:55:33.993Z,27.87
2022-12-14T03:58:06.542Z,27.17
2022-12-14T04:00:51.051Z,25.37
2022-12-14T04:03:39.269Z,27.87
2022-12-14T04:06:26.865Z,29.03
2022-12-14T04:08:56.909Z,29.10
2022-12-14T04:11:46.497Z,26.13
2022-12-14T04:14:51.193Z,29.23
2022-12-14T04:17:43.616Z,26.47
2022-12-14T04:20:21.313Z,28.20
2022-12-14T04:22:53.121Z,30.53
2022-12-14T04:26:01.374Z,34.63
2022-12-14T04:29:00.898Z,33.63
2022-12-14T04:31:31.748Z,28.90
2022-12-14T04:34:03.068Z,27.63
2022-12-14T04:36:43.646Z,26.60
2022-12-14T04:39:17.956Z,30.67
2022-12-14T04:41:49.709Z,31.67
2022-12-14T04:44:38.012Z,34.37
2022-12-14T04:47:09.416Z,29.30
2022-12-14T04:49:52.490Z,30.63
2022-12-14T04:52:28.246Z,28.03
2022-12-14T04:54:58.776Z,33.03
2022-12-14T04:57:32.817Z,23.20
2022-12-14T05:00:01.559Z,26.77
2022-12-14T05:03:07.475Z,30.67
2022-12-14T05:06:00.774Z,28.53
2022-12-14T05:08:47.061Z,30.73
2022-12-14T05:11:52.728Z,26.67
2022-12-14T05:14:22.572Z,28.57
2022-12-14T05:16:50.623Z,27.20
2022-12-14T05:19:17.365Z,27.43
2022-12-14T05:21:49.848Z,24.70
2022-12-14T05:24:17.422Z,33.43
2022-12-14T05:26:45.577Z,30.07
2022-12-14T05:29:12.838Z,30.37
2022-12-14T05:31:40.102Z,35.43
2022-12-14T05:34:07.171Z,33.17
2022-12-14T05:36:33.921Z,28.00
2022-12-14T05:39:00.987Z,19.47
2022-12-14T05:41:28.209Z,30.47
2022-12-14T05:43:55.151Z,13.57
2022-12-14T05:46:22.162Z,33.20
2022-12-14T05:48:49.676Z,36.33
2022-12-14T05:51:16.897Z,31.87
2022-12-14T05:53:44.297Z,35.13
2022-12-14T05:56:12.073Z,33.20
2022-12-14T05:58:39.640Z,35.17
2022-12-14T06:01:13.960Z,32.27
2022-12-14T06:03:44.404Z,31.87
2022-12-14T06:06:13.023Z,36.13
2022-12-14T06:08:43.047Z,38.57
2022-12-14T06:11:12.861Z,31.13
2022-12-14T06:13:41.819Z,28.00
2022-12-14T06:16:21.407Z,29.63
2022-12-14T06:18:54.091Z,28.90
2022-12-14T06:21:23.883Z,27.03
2022-12-14T06:23:50.601Z,32.40
2022-12-14T06:26:18.414Z,34.20
2022-12-14T06:28:45.537Z,34.87
2022-12-14T06:31:16.424Z,32.43
2022-12-14T06:33:44.554Z,30.83
2022-12-14T06:36:32.985Z,32.33
2022-12-14T06:39:05.814Z,32.93
2022-12-14T06:41:33.025Z,30.93
2022-12-14T06:44:05.650Z,31.10
2022-12-14T06:46:33.317Z,29.93
2022-12-14T06:49:00.080Z,30.93
2022-12-14T06:51:27.028Z,29.73
2022-12-14T06:53:56.139Z,36.80
2022-12-14T06:56:26.164Z,36.50
2022-12-14T06:58:57.097Z,37.70
2022-12-14T07:01:25.662Z,34.23
2022-12-14T07:03:58.644Z,31.63
2022-12-14T07:06:27.232Z,35.40
2022-12-14T07:08:56.188Z,30.50
2022-12-14T07:11:23.679Z,27.57
2022-12-14T07:13:50.415Z,32.00
2022-12-14T07:16:20.206Z,30.87
2022-12-14T07:18:47.116Z,34.87
2022-12-14T07:21:16.225Z,32.60
2022-12-14T07:23:45.243Z,37.20
2022-12-14T07:26:15.190Z,36.00
2022-12-14T07:28:43.805Z,31.23
2022-12-14T07:31:16.161Z,35.10
2022-12-14T07:33:43.872Z,35.33
2022-12-14T07:36:13.280Z,33.43
2022-12-14T07:38:42.415Z,34.33
2022-12-14T07:41:16.489Z,36.53
2022-12-14T07:43:46.325Z,33.50
2022-12-14T07:46:20.299Z,30.63
2022-12-14T07:48:49.414Z,34.93
2022-12-14T07:51:18.991Z,35.67
2022-12-14T07:53:46.406Z,32.77
2022-12-14T07:56:27.711Z,37.63
2022-12-14T07:58:56.501Z,35.43
2022-12-14T08:01:26.001Z,33.80
2022-12-14T08:04:05.756Z,32.37
2022-12-14T08:06:33.540Z,34.57
2022-12-14T08:09:01.655Z,36.03
2022-12-14T08:11:29.369Z,33.20
2022-12-14T08:14:07.176Z,35.17
2022-12-14T08:16:34.954Z,30.43
2022-12-14T08:19:02.061Z,30.33
2022-12-14T08:21:30.600Z,32.07
2022-12-14T08:23:58.005Z,33.00
2022-12-14T08:26:31.646Z,34.23
2022-12-14T08:29:00.904Z,32.60
2022-12-14T08:31:30.905Z,33.33
2022-12-14T08:34:02.131Z,33.63
2022-12-14T08:36:33.241Z,28.93
2022-12-14T08:39:02.363Z,32.50
2022-12-14T08:41:29.805Z,29.07
2022-12-14T08:43:58.668Z,33.30
2022-12-14T08:46:28.398Z,33.67
2022-12-14T08:48:55.465Z,29.10
2022-12-14T08:51:24.062Z,32.00
2022-12-14T08:53:51.828Z,29.77
2022-12-14T08:56:21.183Z,33.10
2022-12-14T08:58:47.986Z,37.00
2022-12-14T09:01:17.637Z,28.80
2022-12-14T09:03:46.251Z,30.53
2022-12-14T09:06:34.232Z,29.63
2022-12-14T09:09:01.862Z,29.33
2022-12-14T09:11:30.209Z,30.73
2022-12-14T09:13:57.604Z,31.63
2022-12-14T09:16:28.632Z,35.83
2022-12-14T09:18:55.783Z,33.97
2022-12-14T09:21:23.223Z,29.13
2022-12-14T09:23:55.586Z,28.40
2022-12-14T09:26:25.523Z,30.90
2022-12-14T09:28:54.474Z,32.33
2022-12-14T09:31:24.617Z,29.80
2022-12-14T09:33:51.793Z,28.17
2022-12-14T09:36:24.632Z,28.27
2022-12-14T09:38:52.702Z,29.70
2022-12-14T09:41:50.749Z,28.37
2022-12-14T09:44:24.996Z,26.17
2022-12-14T09:47:01.442Z,25.60
2022-12-14T09:49:32.680Z,27.63
2022-12-14T09:52:04.330Z,29.23
2022-12-14T09:54:36.567Z,27.37
2022-12-14T09:57:24.458Z,26.57
2022-12-14T09:59:53.985Z,25.30
2022-12-14T10:02:36.123Z,24.23
2022-12-14T10:05:12.182Z,29.53
2022-12-14T10:07:49.836Z,23.83
2022-12-14T10:10:24.017Z,23.77
2022-12-14T10:12:53.790Z,26.50
2022-12-14T10:15:40.553Z,27.03
2022-12-14T10:18:49.310Z,27.60
2022-12-14T10:21:15.862Z,25.00
2022-12-14T10:24:01.419Z,20.87
2022-12-14T10:26:51.815Z,21.53
2022-12-14T10:29:40.785Z,21.17
2022-12-14T10:32:20.872Z,18.53
2022-12-14T10:34:48.591Z,25.63
2022-12-14T10:37:37.929Z,26.57
2022-12-14T10:40:17.609Z,23.27
2022-12-14T10:42:50.990Z,23.13
2022-12-14T10:45:40.897Z,29.67
2022-12-14T10:48:44.585Z,26.17
2022-12-14T10:51:18.871Z,31.00
2022-12-14T10:54:01.917Z,28.33
2022-12-14T10:56:33.030Z,22.93
2022-12-14T10:59:35.117Z,23.93
2022-12-14T11:02:08.073Z,25.20
2022-12-14T11:04:45.019Z,23.90
2022-12-14T11:07:17.873Z,24.83
2022-12-14T11:09:48.018Z,24.10
2022-12-14T11:12:27.708Z,23.23
2022-12-14T11:14:57.248Z,23.47
2022-12-14T11:17:30.193Z,30.17
2022-12-14T11:20:27.266Z,30.33
2022-12-14T11:23:06.731Z,23.30
2022-12-14T11:25:42.614Z,26.03
2022-12-14T11:28:18.240Z,26.77
2022-12-14T11:31:03.823Z,28.20
2022-12-14T11:33:36.005Z,25.43
2022-12-14T11:36:04.062Z,26.17
2022-12-14T11:38:31.928Z,26.30
2022-12-14T11:41:08.881Z,30.63
2022-12-14T11:43:41.229Z,27.93
2022-12-14T11:46:08.325Z,29.17
2022-12-14T11:48:38.878Z,32.87
2022-12-14T11:51:12.489Z,32.23
2022-12-14T11:53:41.027Z,31.23
2022-12-14T11:56:17.410Z,31.90
2022-12-14T11:58:52.258Z,29.93
2022-12-14T12:01:25.467Z,27.93
2022-12-14T12:03:57.174Z,29.43
2022-12-14T12:06:30.203Z,26.87
2022-12-14T12:09:00.434Z,29.33
2022-12-14T12:11:33.574Z,33.50
2022-12-14T12:14:30.449Z,29.37
2022-12-14T12:16:57.951Z,30.30
2022-12-14T12:19:38.569Z,34.50
2022-12-14T12:22:09.365Z,30.13
2022-12-14T12:25:25.795Z,31.37
2022-12-14T12:27:59.763Z,36.20
2022-12-14T12:30:32.709Z,36.70
2022-12-14T12:33:34.972Z,35.07
2022-12-14T12:36:07.481Z,33.83
2022-12-14T12:38:52.009Z,41.10
2022-12-14T12:41:34.287Z,35.47
2022-12-14T12:44:18.871Z,65.63
2022-12-14T12:47:47.224Z,54.67
2022-12-14T12:50:21.685Z,43.30
2022-12-14T12:53:06.629Z,46.43
2022-12-14T12:55:42.867Z,45.30
2022-12-14T12:58:19.502Z,51.63
2022-12-14T13:00:51.557Z,46.47
2022-12-14T13:03:29.737Z,50.60
2022-12-14T13:06:06.758Z,38.43
2022-12-14T13:08:39.333Z,49.70
2022-12-14T13:11:26.018Z,47.30
2022-12-14T13:14:05.474Z,46.00
2022-12-14T13:16:36.966Z,52.20
2022-12-14T13:19:49.850Z,89.27
2022-12-14T13:22:18.281Z,49.70
2022-12-14T13:24:55.555Z,49.53
2022-12-14T13:27:25.922Z,46.43
2022-12-14T13:30:11.004Z,54.53
2022-12-14T13:33:15.336Z,49.67
2022-12-14T13:36:06.455Z,54.03
2022-12-14T13:39:03.524Z,44.90
2022-12-14T13:41:42.139Z,50.07
2022-12-14T13:44:31.264Z,53.40
2022-12-14T13:47:06.503Z,51.27
2022-12-14T13:49:34.573Z,39.90
2022-12-14T13:52:01.664Z,43.63
2022-12-14T13:54:34.772Z,39.07
2022-12-14T13:57:13.020Z,45.17
2022-12-14T13:59:49.914Z,45.27
2022-12-14T14:02:32.346Z,47.37
2022-12-14T14:05:26.453Z,41.07
2022-12-14T14:08:04.781Z,41.03
2022-12-14T14:10:34.741Z,50.40
2022-12-14T14:13:27.439Z,38.03
2022-12-14T14:16:28.507Z,39.83
2022-12-14T14:19:05.760Z,38.37
2022-12-14T14:22:14.364Z,37.67
2022-12-14T14:24:52.404Z,37.43
2022-12-14T14:27:24.126Z,38.03
2022-12-14T14:29:52.204Z,39.10
2022-12-14T14:32:36.346Z,39.13
2022-12-14T14:35:06.751Z,45.33
2022-12-14T14:37:36.721Z,40.47
2022-12-14T14:40:21.619Z,43.50
2022-12-14T14:43:16.979Z,40.83
2022-12-14T14:45:54.132Z,41.80
2022-12-14T14:48:35.459Z,43.83
2022-12-14T14:51:07.772Z,49.67
2022-12-14T14:53:37.608Z,47.80
2022-12-14T14:56:29.685Z,42.90
2022-12-14T14:59:14.670Z,57.03
2022-12-14T15:01:47.677Z,43.53
2022-12-14T15:04:44.258Z,58.10
2022-12-14T15:07:16.251Z,53.60
2022-12-14T15:10:20.680Z,51.40
2022-12-14T15:13:01.617Z,56.93
2022-12-14T15:15:35.841Z,49.47
2022-12-14T15:18:28.056Z,44.43
2022-12-14T15:21:02.502Z,47.33
2022-12-14T15:23:49.603Z,44.83
2022-12-14T15:26:25.262Z,54.23
2022-12-14T15:28:55.362Z,53.73
2022-12-14T15:31:36.219Z,55.73
2022-12-14T15:34:04.835Z,64.07
2022-12-14T15:36:37.533Z,83.33
2022-12-14T15:39:06.211Z,57.83
2022-12-14T15:41:34.900Z,44.63
2022-12-14T15:44:01.750Z,61.80
2022-12-14T15:46:31.926Z,86.93
2022-12-14T15:49:06.083Z,65.10
2022-12-14T15:51:38.208Z,59.17
2022-12-14T15:54:07.321Z,78.83
2022-12-14T15:56:53.567Z,229.50
2022-12-14T15:59:32.754Z,82.70
2022-12-14T16:02:21.206Z,72.43
2022-12-14T16:04:48.644Z,48.47
2022-12-14T16:07:21.322Z,49.87
2022-12-14T16:09:54.851Z,43.80
2022-12-14T16:12:42.545Z,39.23
2022-12-14T16:15:20.069Z,44.17
2022-12-14T16:17:46.944Z,37.23
2022-12-14T16:20:16.125Z,35.00
2022-12-14T16:22:59.044Z,41.23
2022-12-14T16:25:25.835Z,36.53
2022-12-14T16:27:54.210Z,50.00
2022-12-14T16:30:29.998Z,38.10
2022-12-14T16:33:17.136Z,41.20
2022-12-14T16:35:46.587Z,43.27
2022-12-14T16:38:17.602Z,38.27
2022-12-14T16:40:55.306Z,32.77
2022-12-14T16:43:27.520Z,33.90
2022-12-14T16:46:04.006Z,32.83
2022-12-14T16:48:36.706Z,28.20
2022-12-14T16:51:19.955Z,28.93
2022-12-14T16:54:01.020Z,23.80
2022-12-14T16:56:32.673Z,32.97
2022-12-14T16:59:01.344Z,28.07
2022-12-14T17:01:37.314Z,34.60
2022-12-14T17:04:08.131Z,27.60
2022-12-14T17:06:53.718Z,27.83
2022-12-14T17:09:26.595Z,25.47
2022-12-14T17:11:57.631Z,28.87
2022-12-14T17:14:25.074Z,29.50
2022-12-14T17:17:01.810Z,26.80
2022-12-14T17:19:37.137Z,23.53
2022-12-14T17:22:07.942Z,22.50
2022-12-14T17:24:37.415Z,20.83
2022-12-14T17:27:05.831Z,16.07
2022-12-14T17:29:37.125Z,17.43
2022-12-14T17:32:04.306Z,19.50
2022-12-14T17:34:31.155Z,18.87
2022-12-14T17:36:57.970Z,20.77
2022-12-14T17:39:25.205Z,18.77
2022-12-14T17:41:52.794Z,15.93
2022-12-14T17:44:22.377Z,16.10
2022-12-14T17:46:51.309Z,19.50
2022-12-14T17:49:34.469Z,16.87
2022-12-14T17:52:07.737Z,17.23
2022-12-14T17:54:34.695Z,14.03
2022-12-14T17:57:02.722Z,16.37
2022-12-14T17:59:30.411Z,19.40
2022-12-14T18:01:57.237Z,28.93
2022-12-14T18:04:24.086Z,42.23
2022-12-14T18:06:52.646Z,49.13
2022-12-14T18:09:19.845Z,46.93
2022-12-14T18:12:21.601Z,47.80
2022-12-14T18:14:38.984Z,53.43
2022-12-14T18:17:11.236Z,63.43
2022-12-14T18:19:38.675Z,54.53
2022-12-14T18:22:07.834Z,46.43
2022-12-14T18:24:34.895Z,45.10
2022-12-14T18:27:01.733Z,42.60
2022-12-14T18:29:28.458Z,46.63
2022-12-14T18:31:55.274Z,50.87
2022-12-14T18:34:23.175Z,46.93
2022-12-14T18:36:50.050Z,52.10
2022-12-14T18:39:18.672Z,49.03
2022-12-14T18:41:45.942Z,46.30
2022-12-14T18:44:12.715Z,45.10
2022-12-14T18:46:39.783Z,44.57
2022-12-14T18:49:08.114Z,39.97
2022-12-14T18:51:35.178Z,42.53
2022-12-14T18:54:03.327Z,42.00
2022-12-14T18:56:30.649Z,37.03
2022-12-14T18:58:57.730Z,41.07
2022-12-14T19:01:24.974Z,46.70
2022-12-14T19:03:53.404Z,47.17
2022-12-14T19:09:13.002Z,39.60
2022-12-14T19:11:42.143Z,40.23
2022-12-14T19:14:09.698Z,42.00
2022-12-14T19:16:37.621Z,47.93
2022-12-14T19:19:04.428Z,40.70
2022-12-14T19:21:31.575Z,43.50
2022-12-14T19:23:59.691Z,37.00
2022-12-14T19:26:28.660Z,39.40
2022-12-14T19:28:55.887Z,37.50
2022-12-14T19:31:24.031Z,39.60
2022-12-14T19:33:52.302Z,39.17
2022-12-14T19:36:19.206Z,36.93
2022-12-14T19:38:49.266Z,34.70
2022-12-14T19:41:20.319Z,41.53
2022-12-14T19:43:47.531Z,33.90
2022-12-14T19:46:15.698Z,37.83
2022-12-14T19:48:42.803Z,34.57
2022-12-14T19:51:12.121Z,32.77
2022-12-14T19:53:40.395Z,38.97
2022-12-14T19:56:09.182Z,37.03
2022-12-14T19:58:37.783Z,38.13
2022-12-14T20:01:12.897Z,35.83
2022-12-14T20:03:39.962Z,34.57
2022-12-14T20:06:09.263Z,40.27
2022-12-14T20:08:37.623Z,32.53
2022-12-14T20:11:10.285Z,34.50
2022-12-14T20:13:39.101Z,34.27
2022-12-14T20:16:08.499Z,34.40
2022-12-14T20:18:35.284Z,37.93
2022-12-14T20:21:04.357Z,35.97
2022-12-14T20:23:33.523Z,39.33
2022-12-14T20:26:01.979Z,39.50
2022-12-14T20:28:29.374Z,49.00
2022-12-14T20:30:56.458Z,48.73
2022-12-14T20:33:29.877Z,49.20
2022-12-14T20:35:58.185Z,41.97
2022-12-14T20:38:25.096Z,44.17
2022-12-14T20:40:53.586Z,43.37
2022-12-14T20:43:20.637Z,44.13
2022-12-14T20:45:47.637Z,42.37
2022-12-14T20:48:14.469Z,42.37
2022-12-14T20:50:43.397Z,47.87
2022-12-14T20:53:10.169Z,47.27
2022-12-14T20:55:38.773Z,53.60
2022-12-14T20:58:05.542Z,51.20
2022-12-14T21:00:32.517Z,52.03
2022-12-14T21:02:59.490Z,47.30
2022-12-14T21:05:26.432Z,46.73
2022-12-14T21:07:54.790Z,42.23
2022-12-14T21:10:23.743Z,39.80
2022-12-14T21:12:50.664Z,44.60
2022-12-14T21:15:17.631Z,37.40
2022-12-14T21:17:44.765Z,41.60
2022-12-14T21:20:12.336Z,38.93
2022-12-14T21:22:40.249Z,38.47
2022-12-14T21:25:08.874Z,34.10
2022-12-14T21:27:40.670Z,32.00
2022-12-14T21:30:11.057Z,36.73
2022-12-14T21:32:39.909Z,32.53
2022-12-14T21:35:08.591Z,30.87
2022-12-14T21:37:40.024Z,35.33
2022-12-14T21:40:09.010Z,28.83
2022-12-14T21:42:36.232Z,32.77
2022-12-14T21:45:05.013Z,30.43
2022-12-14T21:47:31.878Z,31.13
2022-12-14T21:49:58.811Z,36.63
2022-12-14T21:52:27.412Z,28.33
2022-12-14T21:54:55.348Z,32.87
2022-12-14T21:57:50.303Z,34.50
2022-12-14T22:00:18.240Z,34.37
2022-12-14T22:02:45.064Z,33.57
2022-12-14T22:05:12.133Z,37.20
2022-12-14T22:07:40.046Z,36.10
2022-12-14T22:10:08.019Z,34.97
2022-12-14T22:12:36.616Z,31.63
2022-12-14T22:15:03.691Z,36.83
2022-12-14T22:17:30.469Z,35.13
2022-12-14T22:19:57.140Z,36.50
2022-12-14T22:22:25.208Z,36.77
2022-12-14T22:24:52.894Z,34.83
2022-12-14T22:27:20.472Z,37.47
2022-12-14T22:29:47.297Z,33.57
2022-12-14T22:32:14.910Z,36.40
2022-12-14T22:34:42.429Z,39.80
2022-12-14T22:37:10.098Z,38.80
2022-12-14T22:39:36.897Z,33.23
2022-12-14T22:42:03.947Z,33.93
2022-12-14T22:44:30.739Z,32.53
2022-12-14T22:46:57.836Z,28.50
2022-12-14T22:49:25.333Z,27.97
2022-12-14T22:51:52.051Z,33.90
2022-12-14T22:54:24.270Z,28.67
2022-12-14T22:57:04.187Z,25.90
2022-12-14T23:00:11.935Z,24.30
2022-12-14T23:02:39.585Z,20.03
2022-12-14T23:05:08.489Z,26.27
2022-12-14T23:07:36.751Z,23.63
2022-12-14T23:10:23.466Z,21.90
2022-12-14T23:13:09.485Z,23.23
2022-12-14T23:15:54.778Z,28.63
2022-12-14T23:18:40.150Z,26.00
2022-12-14T23:21:30.554Z,27.70
2022-12-14T23:24:16.450Z,25.83
2022-12-14T23:27:07.251Z,23.60
2022-12-14T23:29:54.733Z,24.73
2022-12-14T23:32:40.334Z,25.30
2022-12-14T23:35:26.189Z,25.30
2022-12-14T23:38:12.006Z,23.83
2022-12-14T23:40:57.884Z,23.07
2022-12-14T23:43:43.080Z,22.70
2022-12-14T23:46:28.423Z,24.27
2022-12-14T23:49:16.133Z,22.33
2022-12-14T23:52:01.923Z,25.47
2022-12-14T23:54:47.228Z,24.93
2022-12-14T23:57:32.864Z,24.30
